Time;durP1;ratioP1;P1;durP2;ratioP2;P2;SDS_P1;SDS_P2;PMS_P1;PMS_P2;Temp;Humidity;BMP_temperature;BMP_pressure;BME280_temperature;BME280_humidity;BME280_pressure;Samples;Min_cycle;Max_cycle;Signal;HPM_P1;HPM_P2
2022/09/17 00:01:25;;;;;;;;;;;11.10;99.90;;;;;;4971741;28;19960;-82
2022/09/17 00:03:55;;;;;;;;;;;11.10;99.90;;;;;;4979473;28;19929;-83
2022/09/17 00:06:22;;;;;;;;;;;11.10;99.90;;;;;;4990551;28;20395;-82
2022/09/17 00:08:48;;;;;;;;;;;11.20;99.90;;;;;;4990258;28;20016;-83
2022/09/17 00:11:15;;;;;;;;;;;11.10;99.90;;;;;;4989091;28;19922;-82
2022/09/17 00:13:41;;;;;;;;;;;11.00;99.90;;;;;;4989045;28;19933;-82
2022/09/17 00:16:07;;;;;;;;;;;11.10;99.90;;;;;;4989125;28;20016;-83
2022/09/17 00:18:35;;;;;;;;;;;11.10;99.90;;;;;;4989997;28;20436;-83
2022/09/17 00:21:01;;;;;;;;;;;11.20;99.90;;;;;;4990372;28;19926;-83
2022/09/17 00:23:26;;;;;;;;;;;11.30;99.90;;;;;;4990398;28;19933;-82
2022/09/17 00:25:52;;;;;;;;;;;11.40;99.90;;;;;;4988780;28;20020;-82
2022/09/17 00:28:17;;;;;;;;;;;11.40;99.90;;;;;;4990063;28;19926;-82
2022/09/17 00:30:44;;;;;;;;;;;11.40;99.90;;;;;;4989480;28;19926;-82
2022/09/17 00:33:11;;;;;;;;;;;11.40;99.90;;;;;;4990167;28;20426;-83
2022/09/17 00:35:36;;;;;;;;;;;11.40;99.90;;;;;;5004896;28;20266;-83
2022/09/17 00:38:02;;;;;;;;;;;11.40;99.90;;;;;;4990107;28;19953;-82
2022/09/17 00:40:27;;;;;;;;;;;11.40;99.90;;;;;;4988054;28;20389;-82
2022/09/17 00:42:53;;;;;;;;;;;11.40;99.90;;;;;;4989862;28;20024;-83
2022/09/17 00:45:18;;;;;;;;;;;11.40;99.90;;;;;;4989580;28;19934;-82
2022/09/17 00:47:45;;;;;;;;;;;11.30;99.90;;;;;;4989631;28;19933;-82
2022/09/17 00:50:20;;;;;;;;;;;11.40;99.90;;;;;;4989491;28;20311;-83
2022/09/17 00:52:48;;;;;;;;;;;11.30;99.90;;;;;;4989192;28;19926;-82
2022/09/17 00:55:20;;;;;;;;;;;11.30;99.90;;;;;;4988814;28;19926;-82
2022/09/17 00:57:47;;;;;;;;;;;11.20;99.90;;;;;;4989481;28;20506;-82
2022/09/17 01:00:13;;;;;;;;;;;11.20;99.90;;;;;;4989106;28;19926;-82
2022/09/17 01:02:39;;;;;;;;;;;11.10;99.90;;;;;;4989462;28;20402;-82
2022/09/17 01:05:05;;;;;;;;;;;11.20;99.90;;;;;;4987948;28;19933;-82
2022/09/17 01:07:34;;;;;;;;;;;11.10;99.90;;;;;;4989168;28;19925;-83
2022/09/17 01:10:18;;;;;;;;;;;11.10;99.90;;;;;;4987859;28;19952;-82
2022/09/17 01:12:49;;;;;;;;;;;11.10;99.90;;;;;;4989285;28;19933;-82
2022/09/17 01:15:28;;;;;;;;;;;11.10;99.90;;;;;;4989574;28;19932;-82
2022/09/17 01:18:08;;;;;;;;;;;11.10;99.90;;;;;;4988991;28;19952;-82
2022/09/17 01:20:37;;;;;;;;;;;11.20;99.90;;;;;;4988358;28;19959;-83
2022/09/17 01:23:14;;;;;;;;;;;11.20;99.90;;;;;;4972375;28;20543;-82
2022/09/17 01:25:52;;;;;;;;;;;11.20;99.90;;;;;;4987747;28;20341;-82
2022/09/17 01:28:36;;;;;;;;;;;11.20;99.90;;;;;;4989504;28;19932;-82
2022/09/17 01:31:07;;;;;;;;;;;11.20;99.90;;;;;;4988016;28;20078;-83
2022/09/17 01:33:51;;;;;;;;;;;11.20;99.90;;;;;;5004407;28;19926;-82
2022/09/17 01:36:29;;;;;;;;;;;11.20;99.90;;;;;;4973137;28;19926;-82
2022/09/17 01:38:55;;;;;;;;;;;11.20;99.90;;;;;;4969104;28;20285;-82
2022/09/17 01:41:29;;;;;;;;;;;11.20;99.90;;;;;;4968826;28;19927;-82
2022/09/17 01:44:00;;;;;;;;;;;11.20;99.90;;;;;;4969975;28;19922;-82
2022/09/17 01:46:28;;;;;;;;;;;11.20;99.90;;;;;;4970001;28;20021;-82
2022/09/17 01:48:57;;;;;;;;;;;11.30;99.90;;;;;;4969338;28;19934;-82
2022/09/17 01:51:24;;;;;;;;;;;11.30;99.90;;;;;;4969444;28;19930;-82
2022/09/17 01:54:01;;;;;;;;;;;11.20;99.90;;;;;;4969570;28;19930;-82
2022/09/17 01:56:32;;;;;;;;;;;11.20;99.90;;;;;;4983066;28;19977;-82
2022/09/17 01:59:08;;;;;;;;;;;11.20;99.90;;;;;;4988561;28;19930;-82
2022/09/17 02:01:37;;;;;;;;;;;11.20;99.90;;;;;;4988530;28;19926;-83
2022/09/17 02:04:16;;;;;;;;;;;11.30;99.90;;;;;;4971691;28;19976;-82
2022/09/17 02:06:45;;;;;;;;;;;11.30;99.90;;;;;;4988498;28;19929;-83
2022/09/17 02:09:14;;;;;;;;;;;11.30;99.90;;;;;;4987699;28;19985;-83
2022/09/17 02:11:41;;;;;;;;;;;11.40;99.90;;;;;;4971088;28;19926;-83
2022/09/17 02:14:12;;;;;;;;;;;11.30;99.90;;;;;;4988848;28;19979;-83
2022/09/17 02:16:43;;;;;;;;;;;11.30;99.90;;;;;;4988264;28;19936;-83
2022/09/17 02:19:09;;;;;;;;;;;11.20;99.90;;;;;;4989099;28;20019;-83
2022/09/17 02:21:53;;;;;;;;;;;11.30;99.90;;;;;;4988039;28;19980;-83
2022/09/17 02:24:21;;;;;;;;;;;11.30;99.90;;;;;;4986554;28;19937;-83
2022/09/17 02:26:49;;;;;;;;;;;11.30;99.90;;;;;;4987676;28;19926;-82
2022/09/17 02:29:22;;;;;;;;;;;11.30;99.90;;;;;;4988745;28;19926;-82
2022/09/17 02:31:47;;;;;;;;;;;11.30;99.90;;;;;;4989397;28;19933;-82
2022/09/17 02:34:13;;;;;;;;;;;11.30;99.90;;;;;;4992340;28;20265;-82
2022/09/17 02:36:39;;;;;;;;;;;11.40;99.90;;;;;;4992307;28;19926;-82
2022/09/17 02:39:04;;;;;;;;;;;11.40;99.90;;;;;;4989936;28;19926;-83
2022/09/17 02:41:39;;;;;;;;;;;11.40;99.90;;;;;;4992104;28;20012;-83
2022/09/17 02:44:25;;;;;;;;;;;11.40;99.90;;;;;;4990985;28;19926;-83
2022/09/17 02:46:58;;;;;;;;;;;11.40;99.90;;;;;;4991364;28;20015;-83
2022/09/17 02:49:48;;;;;;;;;;;11.30;99.90;;;;;;4992167;28;19926;-82
2022/09/17 02:52:30;;;;;;;;;;;11.30;99.90;;;;;;4991791;28;20372;-82
2022/09/17 02:55:01;;;;;;;;;;;11.30;99.90;;;;;;4990166;28;19925;-82
2022/09/17 02:57:30;;;;;;;;;;;11.30;99.90;;;;;;4992495;28;19930;-82
2022/09/17 03:00:06;;;;;;;;;;;11.40;99.90;;;;;;4992451;28;19926;-83
2022/09/17 03:02:49;;;;;;;;;;;11.30;99.90;;;;;;4991375;28;19980;-83
2022/09/17 03:05:17;;;;;;;;;;;11.30;99.90;;;;;;4991902;28;19930;-82
2022/09/17 03:07:42;;;;;;;;;;;11.30;99.90;;;;;;4990123;28;19926;-83
2022/09/17 03:10:08;;;;;;;;;;;11.20;99.90;;;;;;4990645;28;20411;-83
2022/09/17 03:12:34;;;;;;;;;;;11.20;99.90;;;;;;4990994;28;20292;-83
2022/09/17 03:15:00;;;;;;;;;;;11.20;99.90;;;;;;4990268;28;19925;-83
2022/09/17 03:17:25;;;;;;;;;;;11.10;99.90;;;;;;4991913;28;19948;-83
2022/09/17 03:19:51;;;;;;;;;;;11.10;99.90;;;;;;4990101;28;19980;-83
2022/09/17 03:22:16;;;;;;;;;;;11.10;99.90;;;;;;4990248;28;19948;-82
2022/09/17 03:24:42;;;;;;;;;;;11.10;99.90;;;;;;4988980;28;19937;-83
2022/09/17 03:27:08;;;;;;;;;;;11.10;99.90;;;;;;4991087;28;20355;-83
2022/09/17 03:29:33;;;;;;;;;;;11.10;99.90;;;;;;4990672;28;19933;-82
2022/09/17 03:31:59;;;;;;;;;;;11.10;99.90;;;;;;4989870;28;20013;-82
2022/09/17 03:34:25;;;;;;;;;;;11.10;99.90;;;;;;4989834;28;19956;-83
2022/09/17 03:36:51;;;;;;;;;;;11.10;99.90;;;;;;4971883;28;19926;-82
2022/09/17 03:39:16;;;;;;;;;;;11.10;99.90;;;;;;4989962;28;19926;-83
2022/09/17 03:41:42;;;;;;;;;;;11.10;99.90;;;;;;4989625;28;19930;-83
2022/09/17 03:44:09;;;;;;;;;;;11.10;99.90;;;;;;4990514;28;19988;-83
2022/09/17 03:46:35;;;;;;;;;;;11.10;99.90;;;;;;4990708;28;19926;-83
2022/09/17 03:49:01;;;;;;;;;;;11.00;99.90;;;;;;4990851;28;20407;-83
2022/09/17 03:51:26;;;;;;;;;;;11.00;99.90;;;;;;4991058;28;20391;-83
2022/09/17 03:53:52;;;;;;;;;;;11.10;99.90;;;;;;4989365;28;19930;-82
2022/09/17 03:56:17;;;;;;;;;;;11.10;99.90;;;;;;4990213;28;19934;-82
2022/09/17 03:58:43;;;;;;;;;;;11.10;99.90;;;;;;4990578;28;19933;-81
2022/09/17 04:01:08;;;;;;;;;;;11.10;99.90;;;;;;4989615;28;19926;-81
2022/09/17 04:03:34;;;;;;;;;;;11.00;99.90;;;;;;4990197;28;19929;-81
2022/09/17 04:06:00;;;;;;;;;;;10.70;99.90;;;;;;4989474;28;19929;-82
2022/09/17 04:08:25;;;;;;;;;;;10.50;99.90;;;;;;4991063;28;19968;-81
2022/09/17 04:10:51;;;;;;;;;;;10.30;99.90;;;;;;4989268;28;19980;-80
2022/09/17 04:13:17;;;;;;;;;;;10.10;99.90;;;;;;4990428;28;20316;-80
2022/09/17 04:15:43;;;;;;;;;;;10.00;99.90;;;;;;4990126;28;19930;-81
2022/09/17 04:18:09;;;;;;;;;;;9.90;99.90;;;;;;4988851;28;20376;-81
2022/09/17 04:20:35;;;;;;;;;;;9.80;99.90;;;;;;4990364;28;19980;-81
2022/09/17 04:23:00;;;;;;;;;;;9.90;99.90;;;;;;4989471;28;19930;-82
2022/09/17 04:25:26;;;;;;;;;;;9.80;99.90;;;;;;4987943;28;19930;-81
2022/09/17 04:27:51;;;;;;;;;;;9.80;99.90;;;;;;4989909;28;19937;-81
2022/09/17 04:30:17;;;;;;;;;;;9.80;99.90;;;;;;4988692;28;19926;-81
2022/09/17 04:32:43;;;;;;;;;;;9.70;99.90;;;;;;4989702;28;19926;-81
2022/09/17 04:35:09;;;;;;;;;;;9.80;99.90;;;;;;4965735;28;19926;-81
2022/09/17 04:37:34;;;;;;;;;;;9.70;99.90;;;;;;4970221;28;19926;-81
2022/09/17 04:40:00;;;;;;;;;;;9.70;99.90;;;;;;4969564;28;20016;-82
2022/09/17 04:42:26;;;;;;;;;;;9.70;99.90;;;;;;4988965;28;19955;-81
2022/09/17 04:44:51;;;;;;;;;;;9.70;99.90;;;;;;5004719;28;19929;-81
2022/09/17 04:47:17;;;;;;;;;;;9.70;99.90;;;;;;4989807;28;19965;-82
2022/09/17 04:49:42;;;;;;;;;;;9.70;99.90;;;;;;4988495;28;19926;-81
2022/09/17 04:52:08;;;;;;;;;;;9.80;99.90;;;;;;4989650;28;19922;-82
2022/09/17 04:54:33;;;;;;;;;;;9.70;99.90;;;;;;4987832;28;19972;-82
2022/09/17 04:56:59;;;;;;;;;;;9.80;99.90;;;;;;4988270;28;19922;-81
2022/09/17 04:59:25;;;;;;;;;;;9.80;99.90;;;;;;4988952;28;19926;-81
2022/09/17 05:01:50;;;;;;;;;;;9.80;99.90;;;;;;4989382;28;20320;-81
2022/09/17 05:04:16;;;;;;;;;;;9.80;99.90;;;;;;4989633;28;19922;-81
2022/09/17 05:06:41;;;;;;;;;;;9.90;99.90;;;;;;4988988;28;19945;-81
2022/09/17 05:09:09;;;;;;;;;;;9.90;99.90;;;;;;4986779;28;21548;-81
2022/09/17 05:11:34;;;;;;;;;;;9.90;99.90;;;;;;4988008;28;19925;-81
2022/09/17 05:14:00;;;;;;;;;;;9.90;99.90;;;;;;4989736;28;20665;-82
2022/09/17 05:16:25;;;;;;;;;;;9.90;99.90;;;;;;4988570;28;19984;-81
2022/09/17 05:18:51;;;;;;;;;;;9.80;99.90;;;;;;4972739;28;20016;-81
2022/09/17 05:21:17;;;;;;;;;;;9.90;99.90;;;;;;4970044;28;19926;-81
2022/09/17 05:23:43;;;;;;;;;;;9.90;99.90;;;;;;4968488;28;19935;-81
2022/09/17 05:26:08;;;;;;;;;;;9.90;99.90;;;;;;4975592;28;20053;-81
2022/09/17 05:28:34;;;;;;;;;;;9.90;99.90;;;;;;4967862;28;19926;-81
2022/09/17 05:31:00;;;;;;;;;;;10.00;99.90;;;;;;4973536;28;19926;-81
2022/09/17 05:33:26;;;;;;;;;;;10.00;99.90;;;;;;4986502;28;20536;-83
2022/09/17 05:35:51;;;;;;;;;;;10.10;99.90;;;;;;4976173;28;19961;-82
2022/09/17 05:38:17;;;;;;;;;;;10.10;99.90;;;;;;4968170;28;20300;-80
2022/09/17 05:40:43;;;;;;;;;;;10.10;99.90;;;;;;4968367;28;19926;-82
2022/09/17 05:43:09;;;;;;;;;;;10.10;99.90;;;;;;4984580;28;19930;-83
2022/09/17 05:45:36;;;;;;;;;;;10.20;99.90;;;;;;4986938;28;20004;-83
2022/09/17 05:48:03;;;;;;;;;;;10.20;99.90;;;;;;4988925;28;19930;-82
2022/09/17 05:50:29;;;;;;;;;;;10.10;99.90;;;;;;4981723;28;20061;-82
2022/09/17 05:52:56;;;;;;;;;;;10.10;99.90;;;;;;4975502;28;19930;-82
2022/09/17 05:55:22;;;;;;;;;;;9.90;99.90;;;;;;4972398;28;19933;-82
2022/09/17 05:57:48;;;;;;;;;;;10.00;99.90;;;;;;4988252;28;19951;-82
2022/09/17 06:00:13;;;;;;;;;;;10.00;99.90;;;;;;4988713;28;19925;-82
2022/09/17 06:02:39;;;;;;;;;;;10.00;99.90;;;;;;4988217;28;19933;-82
2022/09/17 06:05:05;;;;;;;;;;;10.00;99.90;;;;;;4988535;28;19969;-82
2022/09/17 06:07:30;;;;;;;;;;;10.10;99.90;;;;;;4990564;28;19926;-82
2022/09/17 06:09:56;;;;;;;;;;;10.10;99.90;;;;;;4991927;28;19926;-81
2022/09/17 06:12:22;;;;;;;;;;;10.10;99.90;;;;;;4992500;28;19926;-82
2022/09/17 06:14:47;;;;;;;;;;;10.10;99.90;;;;;;4992226;28;19926;-82
2022/09/17 06:17:13;;;;;;;;;;;10.10;99.90;;;;;;4991128;28;19928;-82
2022/09/17 06:19:38;;;;;;;;;;;10.10;99.90;;;;;;4992076;28;19977;-82
2022/09/17 06:22:04;;;;;;;;;;;10.10;99.90;;;;;;5006944;28;19933;-80
2022/09/17 06:24:31;;;;;;;;;;;10.10;99.90;;;;;;4990452;28;19980;-80
2022/09/17 06:26:57;;;;;;;;;;;10.10;99.90;;;;;;4990297;28;19930;-80
2022/09/17 06:29:23;;;;;;;;;;;10.20;99.90;;;;;;4987688;28;20454;-81
2022/09/17 06:31:48;;;;;;;;;;;10.10;99.90;;;;;;4977582;28;19926;-79
2022/09/17 06:34:14;;;;;;;;;;;10.20;99.90;;;;;;4979418;28;20020;-81
2022/09/17 06:36:39;;;;;;;;;;;10.20;99.90;;;;;;4990325;28;19926;-79
2022/09/17 06:39:05;;;;;;;;;;;10.30;99.90;;;;;;4990626;28;19925;-80
2022/09/17 06:41:30;;;;;;;;;;;10.40;99.90;;;;;;4990114;28;19926;-80
2022/09/17 06:43:56;;;;;;;;;;;10.50;99.90;;;;;;4991897;28;20027;-80
2022/09/17 06:46:21;;;;;;;;;;;10.60;99.90;;;;;;4991599;28;20380;-80
2022/09/17 06:48:47;;;;;;;;;;;10.60;99.90;;;;;;4989459;28;19926;-80
2022/09/17 06:51:13;;;;;;;;;;;10.60;99.90;;;;;;4991542;28;20016;-80
2022/09/17 06:53:39;;;;;;;;;;;10.60;99.90;;;;;;4990236;28;19932;-80
2022/09/17 06:56:05;;;;;;;;;;;10.60;99.90;;;;;;4990268;28;19926;-81
2022/09/17 06:58:31;;;;;;;;;;;10.60;99.90;;;;;;4990809;28;20016;-79
2022/09/17 07:00:59;;;;;;;;;;;10.70;99.90;;;;;;4991640;28;19932;-79
2022/09/17 07:03:24;;;;;;;;;;;10.60;99.90;;;;;;4991474;28;19980;-80
2022/09/17 07:05:49;;;;;;;;;;;10.60;99.90;;;;;;4990748;28;19930;-79
2022/09/17 07:08:15;;;;;;;;;;;10.50;99.90;;;;;;4990144;28;20025;-80
2022/09/17 07:10:40;;;;;;;;;;;10.50;99.90;;;;;;4990731;28;19933;-79
2022/09/17 07:13:06;;;;;;;;;;;10.50;99.90;;;;;;4991095;28;19949;-79
2022/09/17 07:15:31;;;;;;;;;;;10.40;99.90;;;;;;4990375;28;19976;-80
2022/09/17 07:17:57;;;;;;;;;;;10.40;99.90;;;;;;4990553;28;19926;-79
2022/09/17 07:20:22;;;;;;;;;;;10.40;99.90;;;;;;4990268;28;20359;-79
2022/09/17 07:22:56;;;;;;;;;;;10.40;99.90;;;;;;4990837;28;19926;-80
2022/09/17 07:25:21;;;;;;;;;;;10.40;99.90;;;;;;4989758;28;19933;-80
2022/09/17 07:27:47;;;;;;;;;;;10.40;99.90;;;;;;4990442;28;20372;-80
2022/09/17 07:30:12;;;;;;;;;;;10.40;99.90;;;;;;4989296;28;19965;-79
2022/09/17 07:32:38;;;;;;;;;;;10.50;99.90;;;;;;4990264;28;20012;-80
2022/09/17 07:35:04;;;;;;;;;;;10.50;99.90;;;;;;4989084;28;19980;-80
2022/09/17 07:37:29;;;;;;;;;;;10.50;99.90;;;;;;4990970;28;19948;-80
2022/09/17 07:39:55;;;;;;;;;;;10.50;99.90;;;;;;4989433;28;19937;-79
2022/09/17 07:42:20;;;;;;;;;;;10.50;99.90;;;;;;4982085;28;19930;-79
2022/09/17 07:44:46;;;;;;;;;;;10.50;99.90;;;;;;4970723;28;19926;-79
2022/09/17 07:47:11;;;;;;;;;;;10.40;99.90;;;;;;4984305;28;20376;-79
2022/09/17 07:49:37;;;;;;;;;;;10.40;99.90;;;;;;4990326;28;19972;-79
2022/09/17 07:52:05;;;;;;;;;;;10.50;99.90;;;;;;4990522;28;19922;-80
2022/09/17 07:54:35;;;;;;;;;;;10.60;99.90;;;;;;4989178;28;19933;-79
2022/09/17 07:57:01;;;;;;;;;;;10.70;99.90;;;;;;4990347;28;19973;-80
2022/09/17 07:59:26;;;;;;;;;;;10.80;99.90;;;;;;4979406;28;20008;-78
2022/09/17 08:01:52;;;;;;;;;;;10.80;99.90;;;;;;4989940;28;19930;-78
2022/09/17 08:04:17;;;;;;;;;;;10.80;99.90;;;;;;4989667;28;19922;-79
2022/09/17 08:06:43;;;;;;;;;;;10.70;99.90;;;;;;4988908;28;20016;-79
2022/09/17 08:09:09;;;;;;;;;;;10.70;99.90;;;;;;4988597;28;20380;-79
2022/09/17 08:11:35;;;;;;;;;;;10.70;99.90;;;;;;4988328;28;19968;-79
2022/09/17 08:14:01;;;;;;;;;;;10.70;99.90;;;;;;4988236;28;20391;-79
2022/09/17 08:16:26;;;;;;;;;;;10.80;99.90;;;;;;4989813;28;20351;-77
2022/09/17 08:18:56;;;;;;;;;;;10.80;99.90;;;;;;4988528;28;19925;-74
2022/09/17 08:21:21;;;;;;;;;;;10.80;99.90;;;;;;5004033;28;19926;-73
2022/09/17 08:23:48;;;;;;;;;;;11.00;99.90;;;;;;4987795;28;19953;-75
2022/09/17 08:26:14;;;;;;;;;;;11.10;99.90;;;;;;4988704;28;20013;-76
2022/09/17 08:28:43;;;;;;;;;;;11.20;99.90;;;;;;4993675;28;19932;-78
2022/09/17 08:31:09;;;;;;;;;;;11.30;99.90;;;;;;4988380;28;19932;-79
2022/09/17 08:33:36;;;;;;;;;;;11.30;99.90;;;;;;4981219;28;20432;-77
2022/09/17 08:36:02;;;;;;;;;;;11.30;99.90;;;;;;4976446;28;19932;-75
2022/09/17 08:38:28;;;;;;;;;;;11.30;99.90;;;;;;4980894;28;19937;-79
2022/09/17 08:41:04;;;;;;;;;;;11.30;99.90;;;;;;4982089;28;19926;-78
2022/09/17 08:43:32;;;;;;;;;;;11.30;99.90;;;;;;4977632;28;19933;-76
2022/09/17 08:45:58;;;;;;;;;;;11.40;99.90;;;;;;4977543;28;19925;-78
2022/09/17 08:48:31;;;;;;;;;;;11.50;99.90;;;;;;4980433;28;19934;-79
2022/09/17 08:50:56;;;;;;;;;;;11.60;99.90;;;;;;4982995;28;19922;-76
2022/09/17 08:53:25;;;;;;;;;;;11.70;99.90;;;;;;4987046;28;20438;-75
2022/09/17 08:56:00;;;;;;;;;;;11.90;99.90;;;;;;4980315;28;19981;-78
2022/09/17 08:58:34;;;;;;;;;;;11.90;99.90;;;;;;4969371;28;20350;-76
2022/09/17 09:00:59;;;;;;;;;;;12.00;99.90;;;;;;4969090;28;20304;-78
2022/09/17 09:03:49;;;;;;;;;;;12.00;99.90;;;;;;4980198;28;19929;-78
2022/09/17 09:06:15;;;;;;;;;;;12.00;99.90;;;;;;4987988;28;20407;-77
2022/09/17 09:09:02;;;;;;;;;;;12.00;99.90;;;;;;4983784;28;19934;-76
2022/09/17 09:11:29;;;;;;;;;;;12.00;99.90;;;;;;4992192;28;19972;-75
2022/09/17 09:14:10;;;;;;;;;;;12.20;99.90;;;;;;4979998;28;19930;-80
2022/09/17 09:16:38;;;;;;;;;;;12.20;99.90;;;;;;4960304;28;19934;-78
2022/09/17 09:19:13;;;;;;;;;;;12.20;99.90;;;;;;4966045;28;19953;-81
2022/09/17 09:21:46;;;;;;;;;;;12.30;99.90;;;;;;4981352;28;19929;-78
2022/09/17 09:24:14;;;;;;;;;;;12.20;99.90;;;;;;4975602;28;20304;-79
2022/09/17 09:26:47;;;;;;;;;;;12.20;99.90;;;;;;4976246;28;19937;-82
2022/09/17 09:29:19;;;;;;;;;;;12.30;99.90;;;;;;4979480;28;20380;-78
2022/09/17 09:32:10;;;;;;;;;;;12.30;99.90;;;;;;4978599;28;20360;-78
2022/09/17 09:34:36;;;;;;;;;;;12.30;99.90;;;;;;4984283;28;20322;-77
2022/09/17 09:37:20;;;;;;;;;;;12.40;99.90;;;;;;4973722;28;20038;-80
2022/09/17 09:39:46;;;;;;;;;;;12.40;99.90;;;;;;4986466;28;20312;-79
2022/09/17 09:42:21;;;;;;;;;;;12.40;99.90;;;;;;4986873;28;19936;-79
2022/09/17 09:44:47;;;;;;;;;;;12.20;99.90;;;;;;4986605;28;19926;-80
2022/09/17 09:47:28;;;;;;;;;;;11.90;99.90;;;;;;4988177;28;19926;-79
2022/09/17 09:50:00;;;;;;;;;;;11.80;99.90;;;;;;4986755;28;19925;-79
2022/09/17 09:52:26;;;;;;;;;;;11.70;99.90;;;;;;4988295;28;19930;-80
2022/09/17 09:55:01;;;;;;;;;;;11.80;99.90;;;;;;4986880;28;20391;-79
2022/09/17 09:57:34;;;;;;;;;;;11.80;99.90;;;;;;4988326;28;19926;-80
2022/09/17 10:00:20;;;;;;;;;;;11.80;99.90;;;;;;4986471;28;19930;-81
2022/09/17 10:02:46;;;;;;;;;;;11.80;99.90;;;;;;4987190;28;19926;-80
2022/09/17 10:05:11;;;;;;;;;;;11.80;99.90;;;;;;4986944;28;19925;-80
2022/09/17 10:07:44;;;;;;;;;;;11.80;99.90;;;;;;4986458;28;19926;-80
2022/09/17 10:10:09;;;;;;;;;;;12.00;99.90;;;;;;4988824;28;20399;-80
2022/09/17 10:12:35;;;;;;;;;;;12.10;99.90;;;;;;4986560;28;19926;-75
2022/09/17 10:15:20;;;;;;;;;;;12.20;99.90;;;;;;4987430;28;19984;-75
2022/09/17 10:17:47;;;;;;;;;;;12.30;99.90;;;;;;4987077;28;20336;-75
2022/09/17 10:20:14;;;;;;;;;;;12.20;99.90;;;;;;4987869;28;20460;-75
2022/09/17 10:22:42;;;;;;;;;;;12.10;99.90;;;;;;4986706;28;19933;-77
2022/09/17 10:25:19;;;;;;;;;;;12.10;99.90;;;;;;4987657;28;20311;-76
2022/09/17 10:27:45;;;;;;;;;;;12.20;99.90;;;;;;4987256;28;19972;-74
2022/09/17 10:30:11;;;;;;;;;;;12.20;99.90;;;;;;4987403;28;20057;-76
2022/09/17 10:32:36;;;;;;;;;;;12.30;99.90;;;;;;4987256;28;20347;-75
2022/09/17 10:35:05;;;;;;;;;;;12.30;99.90;;;;;;4987486;28;19925;-74
2022/09/17 10:38:03;;;;;;;;;;;12.30;99.90;;;;;;4987090;28;19926;-75
2022/09/17 10:40:30;;;;;;;;;;;12.30;99.90;;;;;;4975240;28;19926;-75
2022/09/17 10:43:10;;;;;;;;;;;12.20;99.90;;;;;;4987994;28;20045;-76
2022/09/17 10:45:38;;;;;;;;;;;12.10;99.90;;;;;;4987047;28;19973;-75
2022/09/17 10:48:03;;;;;;;;;;;12.00;99.90;;;;;;4987058;28;20419;-75
2022/09/17 10:50:30;;;;;;;;;;;12.00;99.90;;;;;;4987679;28;20024;-76
2022/09/17 10:52:58;;;;;;;;;;;12.00;99.90;;;;;;4969386;28;19930;-75
2022/09/17 10:55:29;;;;;;;;;;;11.90;99.90;;;;;;4990901;28;20086;-75
2022/09/17 10:58:03;;;;;;;;;;;11.80;99.90;;;;;;4989761;28;19934;-77
2022/09/17 11:00:31;;;;;;;;;;;11.70;99.90;;;;;;4996047;28;19968;-75
2022/09/17 11:03:15;;;;;;;;;;;11.70;99.90;;;;;;5007839;28;19925;-75
2022/09/17 11:05:40;;;;;;;;;;;11.70;99.90;;;;;;4992709;28;19929;-75
2022/09/17 11:08:12;;;;;;;;;;;11.80;99.90;;;;;;4990075;28;19926;-75
2022/09/17 11:10:51;;;;;;;;;;;11.90;99.90;;;;;;4995724;28;20012;-75
2022/09/17 11:13:23;;;;;;;;;;;11.90;99.90;;;;;;5008763;28;19926;-75
2022/09/17 11:15:57;;;;;;;;;;;11.90;99.90;;;;;;5009637;28;19931;-76
2022/09/17 11:18:23;;;;;;;;;;;11.70;99.90;;;;;;5008835;28;19933;-76
2022/09/17 11:20:56;;;;;;;;;;;11.50;99.90;;;;;;5009581;28;19929;-75
2022/09/17 11:23:30;;;;;;;;;;;11.40;99.90;;;;;;5009027;28;19929;-76
2022/09/17 11:26:09;;;;;;;;;;;11.30;99.90;;;;;;5010020;28;19936;-77
2022/09/17 11:28:46;;;;;;;;;;;11.30;99.90;;;;;;4984419;28;20025;-80
2022/09/17 11:31:27;;;;;;;;;;;11.30;99.90;;;;;;4990093;28;20269;-85
2022/09/17 11:34:07;;;;;;;;;;;11.30;99.90;;;;;;4990873;28;19926;-81
2022/09/17 11:36:41;;;;;;;;;;;11.40;99.90;;;;;;4981938;28;19934;-84
2022/09/17 11:39:12;;;;;;;;;;;11.60;99.90;;;;;;4981286;28;19929;-80
2022/09/17 11:41:44;;;;;;;;;;;11.70;99.90;;;;;;4981743;28;19937;-82
2022/09/17 11:44:25;;;;;;;;;;;11.90;99.90;;;;;;4962380;28;19934;-81
2022/09/17 11:47:09;;;;;;;;;;;12.10;99.90;;;;;;4976800;28;20021;-83
2022/09/17 11:49:46;;;;;;;;;;;12.20;99.90;;;;;;4966094;28;19966;-73
2022/09/17 11:52:31;;;;;;;;;;;12.40;99.90;;;;;;4988662;28;20028;-74
2022/09/17 11:55:19;;;;;;;;;;;12.50;99.90;;;;;;4988261;28;19933;-74
2022/09/17 11:57:46;;;;;;;;;;;12.60;99.90;;;;;;4990131;28;19933;-73
2022/09/17 12:00:19;;;;;;;;;;;12.80;99.90;;;;;;4985875;28;19987;-73
2022/09/17 12:02:52;;;;;;;;;;;12.80;99.90;;;;;;4996422;28;19980;-74
2022/09/17 12:05:19;;;;;;;;;;;12.80;99.90;;;;;;4989690;28;19964;-73
2022/09/17 12:08:03;;;;;;;;;;;12.90;99.90;;;;;;4986997;28;19926;-72
2022/09/17 12:10:41;;;;;;;;;;;12.90;99.90;;;;;;4988480;28;19932;-76
2022/09/17 12:13:24;;;;;;;;;;;13.00;99.90;;;;;;4988877;28;19926;-75
2022/09/17 12:15:54;;;;;;;;;;;13.00;99.90;;;;;;5003863;28;20027;-74
2022/09/17 12:18:28;;;;;;;;;;;13.10;99.90;;;;;;4986509;28;19936;-74
2022/09/17 12:20:56;;;;;;;;;;;13.10;99.90;;;;;;4992559;28;19930;-77
2022/09/17 12:23:33;;;;;;;;;;;13.10;99.90;;;;;;4980417;28;19949;-74
2022/09/17 12:26:19;;;;;;;;;;;13.20;99.90;;;;;;4977964;28;19930;-74
2022/09/17 12:28:52;;;;;;;;;;;13.30;99.90;;;;;;4970566;28;19949;-76
2022/09/17 12:31:24;;;;;;;;;;;13.30;99.90;;;;;;4967623;28;19953;-77
2022/09/17 12:33:53;;;;;;;;;;;13.30;99.90;;;;;;4969050;28;20320;-78
2022/09/17 12:36:24;;;;;;;;;;;13.20;99.90;;;;;;4984088;28;20064;-76
2022/09/17 12:38:50;;;;;;;;;;;13.10;99.90;;;;;;4987700;28;19926;-75
2022/09/17 12:41:21;;;;;;;;;;;13.00;99.90;;;;;;4988360;28;20438;-74
2022/09/17 12:43:52;;;;;;;;;;;12.90;99.90;;;;;;4988307;28;20065;-80
2022/09/17 12:46:21;;;;;;;;;;;12.90;99.90;;;;;;4993231;28;19926;-79
2022/09/17 12:49:07;;;;;;;;;;;12.90;99.90;;;;;;5008102;28;20213;-78
2022/09/17 12:51:50;;;;;;;;;;;12.90;99.90;;;;;;5006199;28;19925;-77
2022/09/17 12:54:35;;;;;;;;;;;12.90;99.90;;;;;;5005377;28;20012;-78
2022/09/17 12:57:19;;;;;;;;;;;12.90;99.90;;;;;;4996485;28;19977;-77
2022/09/17 12:59:50;;;;;;;;;;;12.90;99.90;;;;;;4987473;28;19926;-75
2022/09/17 13:02:19;;;;;;;;;;;12.90;99.90;;;;;;4988336;28;19926;-75
2022/09/17 13:04:59;;;;;;;;;;;12.90;99.90;;;;;;4987312;28;19980;-76
2022/09/17 13:07:47;;;;;;;;;;;12.90;99.90;;;;;;4985972;28;19977;-75
2022/09/17 13:10:16;;;;;;;;;;;12.90;99.90;;;;;;4986674;28;19925;-76
2022/09/17 13:12:47;;;;;;;;;;;13.00;99.90;;;;;;4987846;28;19934;-75
2022/09/17 13:15:24;;;;;;;;;;;13.10;99.90;;;;;;4987943;28;20336;-75
2022/09/17 13:18:08;;;;;;;;;;;13.10;99.90;;;;;;4985696;28;19936;-75
2022/09/17 13:20:39;;;;;;;;;;;13.10;99.90;;;;;;4987385;28;19992;-75
2022/09/17 13:23:05;;;;;;;;;;;13.00;99.90;;;;;;4985589;28;20591;-75
2022/09/17 13:25:30;;;;;;;;;;;13.00;99.90;;;;;;4987263;28;20380;-75
2022/09/17 13:28:04;;;;;;;;;;;12.90;99.90;;;;;;4987991;28;19926;-75
2022/09/17 13:30:50;;;;;;;;;;;12.80;99.90;;;;;;4987048;28;20407;-75
2022/09/17 13:33:36;;;;;;;;;;;12.80;99.90;;;;;;4987161;28;20024;-75
2022/09/17 13:36:03;;;;;;;;;;;12.80;99.90;;;;;;4985924;28;19985;-75
2022/09/17 13:38:39;;;;;;;;;;;12.90;99.90;;;;;;4987422;28;19922;-75
2022/09/17 13:41:18;;;;;;;;;;;12.80;99.90;;;;;;4987481;28;19972;-75
2022/09/17 13:43:45;;;;;;;;;;;12.80;99.90;;;;;;4986760;28;19936;-75
2022/09/17 13:46:13;;;;;;;;;;;12.60;99.90;;;;;;4987293;28;20024;-77
2022/09/17 13:48:43;;;;;;;;;;;12.40;99.90;;;;;;4987366;28;20012;-77
2022/09/17 13:51:28;;;;;;;;;;;12.00;99.90;;;;;;4987126;28;19929;-77
2022/09/17 13:53:54;;;;;;;;;;;11.70;99.90;;;;;;4977445;28;19926;-77
2022/09/17 13:56:31;;;;;;;;;;;11.50;99.90;;;;;;4968416;28;19976;-76
2022/09/17 13:59:05;;;;;;;;;;;11.40;99.90;;;;;;4967192;28;19933;-77
2022/09/17 14:01:50;;;;;;;;;;;11.40;99.90;;;;;;4967770;28;20009;-76
2022/09/17 14:04:34;;;;;;;;;;;11.40;99.90;;;;;;4967711;28;20842;-78
2022/09/17 14:06:59;;;;;;;;;;;11.30;99.90;;;;;;4966618;28;19930;-79
2022/09/17 14:09:50;;;;;;;;;;;11.40;99.90;;;;;;4967548;28;19957;-75
2022/09/17 14:12:46;;;;;;;;;;;11.40;99.90;;;;;;4966575;28;20005;-77
2022/09/17 14:15:30;;;;;;;;;;;11.50;99.90;;;;;;4967554;28;19930;-77
2022/09/17 14:17:57;;;;;;;;;;;11.50;99.90;;;;;;4968478;28;19934;-77
2022/09/17 14:20:23;;;;;;;;;;;11.60;99.90;;;;;;4967641;28;20337;-78
2022/09/17 14:22:59;;;;;;;;;;;11.60;99.90;;;;;;4966448;28;19933;-77
2022/09/17 14:25:31;;;;;;;;;;;11.70;99.90;;;;;;4967975;28;19926;-77
2022/09/17 14:28:02;;;;;;;;;;;11.80;99.90;;;;;;4969614;28;19980;-76
2022/09/17 14:30:32;;;;;;;;;;;11.90;99.90;;;;;;4971251;28;19932;-77
2022/09/17 14:33:16;;;;;;;;;;;12.10;99.90;;;;;;4970727;28;20012;-76
2022/09/17 14:35:43;;;;;;;;;;;12.20;99.90;;;;;;4983862;28;19925;-77